Time;durP1;ratioP1;P1;durP2;ratioP2;P2;SDS_P1;SDS_P2;PMS_P1;PMS_P2;Temp;Humidity;BMP_temperature;BMP_pressure;BME280_temperature;BME280_humidity;BME280_pressure;Samples;Min_cycle;Max_cycle;Signal;HPM_P1;HPM_P2
2023/05/13 00:01:53;;;;;;;4.90;1.10;;;;;;;;;;5066412;28;20040;-75
2023/05/13 00:04:25;;;;;;;5.13;1.15;;;;;;;;;;5065971;28;20051;-75
2023/05/13 00:06:55;;;;;;;3.15;1.25;;;;;;;;;;5065816;28;20048;-76
2023/05/13 00:09:25;;;;;;;2.97;0.93;;;;;;;;;;5065590;28;20044;-76
2023/05/13 00:11:56;;;;;;;3.83;1.00;;;;;;;;;;5065304;28;20598;-75
2023/05/13 00:14:26;;;;;;;;;;;;;;;;;;5063562;28;20075;-75
2023/05/13 00:16:58;;;;;;;10.25;1.83;;;;;;;;;;5066181;28;19932;-75
2023/05/13 00:19:28;;;;;;;4.88;1.60;;;;;;;;;;5066360;28;20734;-77
2023/05/13 00:22:00;;;;;;;4.18;1.58;;;;;;;;;;5065780;28;20049;-76
2023/05/13 00:24:30;;;;;;;;;;;;;;;;;;5065168;28;20060;-75
2023/05/13 00:27:00;;;;;;;5.20;1.63;;;;;;;;;;5063233;28;19924;-76
2023/05/13 00:29:31;;;;;;;7.43;1.90;;;;;;;;;;5064911;28;20049;-76
2023/05/13 00:32:00;;;;;;;;;;;;;;;;;;5064187;28;20547;-76
2023/05/13 00:34:32;;;;;;;5.15;1.65;;;;;;;;;;5064455;28;20379;-76
2023/05/13 00:37:09;;;;;;;12.93;2.00;;;;;;;;;;5042968;28;20048;-75
2023/05/13 00:39:40;;;;;;;4.75;1.80;;;;;;;;;;5042655;28;20052;-76
2023/05/13 00:42:12;;;;;;;6.82;2.05;;;;;;;;;;5043484;28;20045;-76
2023/05/13 00:44:42;;;;;;;6.07;1.70;;;;;;;;;;5044254;28;20041;-75
2023/05/13 00:47:14;;;;;;;6.20;1.50;;;;;;;;;;5043938;28;20076;-75
2023/05/13 00:49:45;;;;;;;3.20;0.98;;;;;;;;;;5045560;28;20045;-75
2023/05/13 00:52:16;;;;;;;7.55;0.90;;;;;;;;;;5045747;28;20053;-77
2023/05/13 00:54:45;;;;;;;;;;;;;;;;;;5045386;28;20049;-76
2023/05/13 00:57:15;;;;;;;7.13;1.00;;;;;;;;;;5044350;28;19924;-76
2023/05/13 00:59:47;;;;;;;2.88;1.33;;;;;;;;;;5045227;28;20045;-76
2023/05/13 01:02:28;;;;;;;4.32;1.25;;;;;;;;;;5044107;28;20085;-76
2023/05/13 01:05:19;;;;;;;2.90;0.90;;;;;;;;;;5044865;28;20060;-75
2023/05/13 01:08:08;;;;;;;4.57;0.70;;;;;;;;;;5044872;28;20499;-76
2023/05/13 01:11:20;;;;;;;2.92;1.10;;;;;;;;;;5044018;28;20053;-78
2023/05/13 01:14:05;;;;;;;7.57;0.90;;;;;;;;;;5025373;28;20049;-76
2023/05/13 01:16:57;;;;;;;3.08;1.00;;;;;;;;;;5043861;28;20048;-76
2023/05/13 01:19:43;;;;;;;2.60;0.80;;;;;;;;;;5045110;28;20407;-78
2023/05/13 01:22:15;;;;;;;3.75;1.25;;;;;;;;;;5044817;28;20044;-76
2023/05/13 01:24:46;;;;;;;5.43;0.90;;;;;;;;;;5045378;28;20045;-76
2023/05/13 01:27:17;;;;;;;4.68;0.75;;;;;;;;;;5044227;28;20060;-76
2023/05/13 01:29:48;;;;;;;5.85;1.00;;;;;;;;;;5042867;28;20060;-75
2023/05/13 01:32:25;;;;;;;2.88;0.60;;;;;;;;;;5042751;28;20049;-76
2023/05/13 01:34:56;;;;;;;3.65;0.70;;;;;;;;;;5044011;28;20542;-76
2023/05/13 01:37:28;;;;;;;10.25;1.17;;;;;;;;;;5044938;28;20052;-75
2023/05/13 01:39:58;;;;;;;5.07;1.10;;;;;;;;;;5043649;28;20056;-75
2023/05/13 01:42:32;;;;;;;1.25;0.57;;;;;;;;;;5027944;28;20614;-76
2023/05/13 01:45:04;;;;;;;3.72;0.90;;;;;;;;;;5044441;28;20048;-75
2023/05/13 01:47:35;;;;;;;8.13;0.90;;;;;;;;;;5043018;28;20058;-76
2023/05/13 01:50:05;;;;;;;9.95;1.20;;;;;;;;;;5043387;28;20053;-76
2023/05/13 01:52:37;;;;;;;7.50;0.73;;;;;;;;;;5043677;28;20064;-76
2023/05/13 01:55:09;;;;;;;6.90;0.82;;;;;;;;;;5043642;28;20060;-76
2023/05/13 01:57:39;;;;;;;0.80;0.60;;;;;;;;;;5043178;28;20052;-75
2023/05/13 02:00:10;;;;;;;1.35;0.70;;;;;;;;;;5043726;28;20049;-76
2023/05/13 02:02:43;;;;;;;3.45;0.88;;;;;;;;;;5049031;28;20768;-76
2023/05/13 02:05:16;;;;;;;3.20;0.93;;;;;;;;;;5043404;28;20088;-75
2023/05/13 02:07:47;;;;;;;3.72;1.20;;;;;;;;;;5042968;28;20064;-75
2023/05/13 02:10:16;;;;;;;;;;;;;;;;;;5044956;28;20041;-75
2023/05/13 02:12:47;;;;;;;1.25;0.85;;;;;;;;;;5044671;28;19932;-75
2023/05/13 02:15:19;;;;;;;2.33;0.90;;;;;;;;;;5044908;28;20056;-75
2023/05/13 02:17:50;;;;;;;2.10;0.80;;;;;;;;;;5048892;28;20049;-75
2023/05/13 02:20:21;;;;;;;6.18;1.15;;;;;;;;;;5046871;28;20053;-75
2023/05/13 02:22:52;;;;;;;2.88;0.85;;;;;;;;;;5046849;28;20049;-76
2023/05/13 02:25:22;;;;;;;;;;;;;;;;;;5048175;28;20056;-75
2023/05/13 02:27:53;;;;;;;1.45;0.88;;;;;;;;;;5048295;28;19933;-75
2023/05/13 02:30:25;;;;;;;2.92;0.85;;;;;;;;;;5031005;28;20053;-76
2023/05/13 02:32:57;;;;;;;5.97;0.70;;;;;;;;;;5047835;28;20049;-76
2023/05/13 02:35:29;;;;;;;4.05;1.13;;;;;;;;;;5047233;28;20419;-75
2023/05/13 02:38:03;;;;;;;1.77;0.70;;;;;;;;;;5048058;28;20045;-76
2023/05/13 02:40:34;;;;;;;1.73;1.13;;;;;;;;;;5046640;28;20060;-76
2023/05/13 02:43:05;;;;;;;5.15;1.38;;;;;;;;;;5046354;28;20427;-75
2023/05/13 02:45:51;;;;;;;3.85;1.17;;;;;;;;;;5046407;28;20053;-76
2023/05/13 02:48:23;;;;;;;2.58;0.95;;;;;;;;;;5047406;28;20056;-75
2023/05/13 02:50:54;;;;;;;3.10;1.52;;;;;;;;;;5045921;28;20055;-76
2023/05/13 02:53:24;;;;;;;5.43;1.58;;;;;;;;;;5046583;28;20057;-75
2023/05/13 02:56:00;;;;;;;4.47;1.33;;;;;;;;;;5046357;28;20519;-75
2023/05/13 02:58:31;;;;;;;4.10;1.20;;;;;;;;;;5047659;28;20056;-75
2023/05/13 03:01:01;;;;;;;2.40;1.10;;;;;;;;;;5047498;28;20041;-76
2023/05/13 03:03:32;;;;;;;1.52;1.08;;;;;;;;;;5046318;28;20055;-76
2023/05/13 03:06:04;;;;;;;3.13;1.10;;;;;;;;;;5045880;28;20397;-76
2023/05/13 03:08:35;;;;;;;4.32;1.30;;;;;;;;;;5047376;28;20041;-75
2023/05/13 03:11:05;;;;;;;8.38;1.48;;;;;;;;;;5047451;28;20057;-75
2023/05/13 03:13:35;;;;;;;5.53;1.10;;;;;;;;;;5047001;28;20053;-76
2023/05/13 03:16:05;;;;;;;6.85;1.38;;;;;;;;;;5047226;28;20052;-76
2023/05/13 03:18:36;;;;;;;4.55;1.35;;;;;;;;;;5047189;28;20061;-76
2023/05/13 03:21:07;;;;;;;4.65;1.50;;;;;;;;;;5047815;28;20053;-75
2023/05/13 03:23:37;;;;;;;7.05;2.28;;;;;;;;;;5047079;28;20041;-76
2023/05/13 03:26:07;;;;;;;6.82;1.80;;;;;;;;;;5045825;28;20414;-75
2023/05/13 03:28:37;;;;;;;7.40;1.50;;;;;;;;;;5047520;28;20051;-76
2023/05/13 03:31:08;;;;;;;3.75;1.30;;;;;;;;;;5045805;28;20057;-75
2023/05/13 03:33:39;;;;;;;3.22;1.15;;;;;;;;;;5045074;28;20056;-75
2023/05/13 03:36:10;;;;;;;4.70;1.30;;;;;;;;;;5046039;28;20064;-75
2023/05/13 03:38:40;;;;;;;4.72;1.50;;;;;;;;;;5045624;28;20057;-75
2023/05/13 03:41:16;;;;;;;1.40;0.90;;;;;;;;;;5047392;28;20045;-76
2023/05/13 03:43:47;;;;;;;3.45;1.30;;;;;;;;;;5044804;28;20049;-75
2023/05/13 03:46:18;;;;;;;1.85;1.25;;;;;;;;;;5046461;28;20610;-75
2023/05/13 03:48:48;;;;;;;5.20;1.20;;;;;;;;;;5044699;28;20067;-75
2023/05/13 03:51:19;;;;;;;2.75;1.00;;;;;;;;;;5044878;28;20064;-76
2023/05/13 03:53:51;;;;;;;4.35;1.00;;;;;;;;;;5045067;28;20618;-75
2023/05/13 03:56:21;;;;;;;1.83;0.73;;;;;;;;;;5045294;28;20057;-75
2023/05/13 03:58:51;;;;;;;5.47;1.00;;;;;;;;;;5045708;28;20045;-75
2023/05/13 04:01:22;;;;;;;3.22;0.90;;;;;;;;;;5046173;28;20049;-75
2023/05/13 04:03:54;;;;;;;6.82;1.00;;;;;;;;;;5044738;28;20056;-75
2023/05/13 04:06:25;;;;;;;1.75;0.80;;;;;;;;;;5045759;28;20048;-75
2023/05/13 04:08:55;;;;;;;4.75;1.10;;;;;;;;;;5044845;28;20049;-75
2023/05/13 04:11:25;;;;;;;4.05;0.80;;;;;;;;;;5046502;28;20053;-75
2023/05/13 04:13:55;;;;;;;5.47;0.95;;;;;;;;;;5044996;28;20052;-75
2023/05/13 04:16:28;;;;;;;3.90;1.77;;;;;;;;;;5046220;28;20049;-75
2023/05/13 04:18:58;;;;;;;3.30;1.10;;;;;;;;;;5046072;28;20060;-75
2023/05/13 04:21:27;;;;;;;;;;;;;;;;;;5045061;28;20049;-75
2023/05/13 04:23:57;;;;;;;2.65;0.63;;;;;;;;;;5045861;28;19928;-75
2023/05/13 04:26:27;;;;;;;1.17;0.75;;;;;;;;;;5044663;28;20056;-75
2023/05/13 04:28:59;;;;;;;1.70;0.77;;;;;;;;;;5044695;28;20052;-75
2023/05/13 04:31:29;;;;;;;3.05;0.70;;;;;;;;;;5045147;28;20057;-75
2023/05/13 04:34:00;;;;;;;2.30;1.02;;;;;;;;;;5043833;28;20055;-75
2023/05/13 04:36:30;;;;;;;;;;;;;;;;;;5044588;28;20053;-75
2023/05/13 04:39:01;;;;;;;4.13;1.30;;;;;;;;;;5043893;28;19925;-75
2023/05/13 04:41:33;;;;;;;8.23;1.63;;;;;;;;;;5044305;28;20050;-75
2023/05/13 04:44:05;;;;;;;5.97;1.90;;;;;;;;;;5045148;28;20048;-75
2023/05/13 04:46:38;;;;;;;2.78;1.48;;;;;;;;;;5043949;28;20400;-75
2023/05/13 04:49:08;;;;;;;4.90;1.27;;;;;;;;;;5044713;28;20055;-75
2023/05/13 04:51:40;;;;;;;6.57;1.60;;;;;;;;;;5045307;28;20048;-75
2023/05/13 04:54:14;;;;;;;;;;;;;;;;;;5044476;28;20543;-75
2023/05/13 04:56:45;;;;;;;6.18;1.52;;;;;;;;;;5044431;28;19932;-75
2023/05/13 04:59:16;;;;;;;1.90;1.27;;;;;;;;;;5045613;28;20045;-75
2023/05/13 05:01:46;;;;;;;2.80;1.20;;;;;;;;;;5044302;28;20407;-75
2023/05/13 05:04:17;;;;;;;3.67;1.60;;;;;;;;;;5044138;28;20052;-75
2023/05/13 05:06:47;;;;;;;4.10;1.50;;;;;;;;;;5044110;28;20061;-75
2023/05/13 05:09:19;;;;;;;1.73;1.00;;;;;;;;;;5045631;28;20049;-75
2023/05/13 05:11:51;;;;;;;4.70;1.30;;;;;;;;;;5043715;28;20439;-75
2023/05/13 05:14:25;;;;;;;3.15;1.08;;;;;;;;;;5043829;28;20072;-75
2023/05/13 05:16:55;;;;;;;3.10;1.05;;;;;;;;;;5043871;28;20053;-75
2023/05/13 05:19:26;;;;;;;5.90;1.30;;;;;;;;;;5043848;28;20056;-75
2023/05/13 05:21:58;;;;;;;5.55;1.38;;;;;;;;;;5043863;28;20760;-75
2023/05/13 05:24:29;;;;;;;7.40;1.45;;;;;;;;;;5043782;28;20049;-75
2023/05/13 05:26:59;;;;;;;6.63;1.15;;;;;;;;;;5044389;28;20045;-75
2023/05/13 05:29:30;;;;;;;7.50;1.58;;;;;;;;;;5043485;28;20053;-75
2023/05/13 05:32:01;;;;;;;1.80;1.10;;;;;;;;;;5043865;28;20045;-75
2023/05/13 05:34:32;;;;;;;1.30;1.08;;;;;;;;;;5044553;28;20051;-75
2023/05/13 05:37:02;;;;;;;3.15;1.27;;;;;;;;;;5045161;28;20049;-75
2023/05/13 05:39:34;;;;;;;3.10;0.77;;;;;;;;;;5044356;28;20049;-75
2023/05/13 05:42:05;;;;;;;3.67;1.60;;;;;;;;;;5045256;28;20057;-75
2023/05/13 05:44:35;;;;;;;2.20;1.42;;;;;;;;;;5043257;28;20076;-75
2023/05/13 05:47:05;;;;;;;6.38;1.00;;;;;;;;;;5044493;28;20045;-75
2023/05/13 05:49:35;;;;;;;;;;;;;;;;;;5046813;28;20049;-75
2023/05/13 05:52:05;;;;;;;5.15;1.27;;;;;;;;;;5047238;28;19931;-75
2023/05/13 05:54:36;;;;;;;7.28;1.40;;;;;;;;;;5047329;28;20061;-75
2023/05/13 05:57:07;;;;;;;3.60;1.52;;;;;;;;;;5047424;28;20056;-75
2023/05/13 05:59:36;;;;;;;4.72;0.90;;;;;;;;;;5048691;28;20053;-75
2023/05/13 06:02:07;;;;;;;2.70;1.20;;;;;;;;;;5047196;28;20053;-75
2023/05/13 06:04:36;;;;;;;;;;;;;;;;;;5047558;28;20060;-75
2023/05/13 06:07:09;;;;;;;1.17;1.08;;;;;;;;;;5047523;28;19924;-75
2023/05/13 06:09:39;;;;;;;3.08;1.17;;;;;;;;;;5047341;28;20049;-75
2023/05/13 06:12:11;;;;;;;7.68;1.38;;;;;;;;;;5047497;28;20057;-75
2023/05/13 06:14:40;;;;;;;1.42;1.10;;;;;;;;;;5047171;28;20057;-75
2023/05/13 06:17:13;;;;;;;3.22;1.42;;;;;;;;;;5046711;28;20049;-75
2023/05/13 06:19:44;;;;;;;5.28;1.20;;;;;;;;;;5047166;28;20056;-75
2023/05/13 06:22:16;;;;;;;3.45;0.90;;;;;;;;;;5047869;28;20048;-75
2023/05/13 06:24:46;;;;;;;1.35;1.10;;;;;;;;;;5048225;28;20056;-75
2023/05/13 06:27:16;;;;;;;2.53;1.23;;;;;;;;;;5047388;28;20065;-75
2023/05/13 06:29:47;;;;;;;4.95;1.75;;;;;;;;;;5048335;28;20049;-75
2023/05/13 06:32:20;;;;;;;5.45;0.90;;;;;;;;;;5046408;28;20052;-75
2023/05/13 06:34:51;;;;;;;1.80;1.10;;;;;;;;;;5047590;28;20053;-75
2023/05/13 06:37:24;;;;;;;2.85;1.20;;;;;;;;;;5046585;28;20049;-75
2023/05/13 06:39:54;;;;;;;2.65;1.30;;;;;;;;;;5047015;28;20045;-75
2023/05/13 06:42:25;;;;;;;2.17;1.20;;;;;;;;;;5048245;28;20795;-75
2023/05/13 06:45:00;;;;;;;6.15;1.05;;;;;;;;;;5046983;28;20045;-75
2023/05/13 06:47:30;;;;;;;3.83;1.27;;;;;;;;;;5046839;28;20041;-75
2023/05/13 06:50:01;;;;;;;8.15;1.48;;;;;;;;;;5046570;28;20052;-75
2023/05/13 06:52:32;;;;;;;4.45;1.40;;;;;;;;;;5046578;28;20522;-75
2023/05/13 06:55:04;;;;;;;21.17;2.35;;;;;;;;;;5047897;28;20067;-75
2023/05/13 06:57:34;;;;;;;3.63;1.67;;;;;;;;;;5047396;28;20045;-75
2023/05/13 07:00:12;;;;;;;1.77;1.25;;;;;;;;;;5045676;28;20045;-75
2023/05/13 07:02:44;;;;;;;5.70;1.20;;;;;;;;;;5047699;28;20049;-75
2023/05/13 07:05:15;;;;;;;4.15;1.23;;;;;;;;;;5047205;28;20048;-75
2023/05/13 07:07:52;;;;;;;2.63;1.23;;;;;;;;;;5047418;28;21123;-75
2023/05/13 07:10:22;;;;;;;5.22;1.10;;;;;;;;;;5047315;28;20041;-76
2023/05/13 07:12:52;;;;;;;3.72;1.23;;;;;;;;;;5047209;28;20048;-76
2023/05/13 07:15:24;;;;;;;2.65;1.27;;;;;;;;;;5047301;28;20045;-75
2023/05/13 07:18:00;;;;;;;5.38;1.55;;;;;;;;;;5047313;28;20049;-75
2023/05/13 07:20:30;;;;;;;4.60;1.00;;;;;;;;;;5045645;28;20053;-75
2023/05/13 07:23:01;;;;;;;3.13;0.88;;;;;;;;;;5046692;28;20053;-75
2023/05/13 07:25:31;;;;;;;;;;;;;;;;;;5047071;28;20056;-76
2023/05/13 07:28:01;;;;;;;1.23;0.80;;;;;;;;;;5047156;28;19921;-75
2023/05/13 07:30:32;;;;;;;1.52;0.82;;;;;;;;;;5046914;28;20068;-75
2023/05/13 07:33:01;;;;;;;1.92;1.30;;;;;;;;;;5046317;28;20424;-75
2023/05/13 07:35:32;;;;;;;1.30;0.80;;;;;;;;;;5046862;28;20059;-75
2023/05/13 07:38:02;;;;;;;1.95;1.15;;;;;;;;;;5047757;28;20409;-75
2023/05/13 07:40:33;;;;;;;8.38;1.02;;;;;;;;;;5045642;28;20049;-75
2023/05/13 07:43:03;;;;;;;5.88;0.95;;;;;;;;;;5045456;28;20053;-75
2023/05/13 07:45:33;;;;;;;8.23;1.02;;;;;;;;;;5045492;28;20045;-75
2023/05/13 07:48:04;;;;;;;1.23;0.95;;;;;;;;;;5046434;28;20052;-75
2023/05/13 07:50:35;;;;;;;2.28;0.88;;;;;;;;;;5046930;28;20051;-75
2023/05/13 07:53:05;;;;;;;1.58;1.00;;;;;;;;;;5047060;28;20056;-75
2023/05/13 07:55:35;;;;;;;4.20;0.90;;;;;;;;;;5047168;28;20045;-75
2023/05/13 07:58:05;;;;;;;4.13;1.10;;;;;;;;;;5046056;28;20056;-75
2023/05/13 08:00:37;;;;;;;3.75;1.55;;;;;;;;;;5045398;28;20068;-75
2023/05/13 08:03:08;;;;;;;7.78;1.45;;;;;;;;;;5046259;28;20587;-75
2023/05/13 08:05:40;;;;;;;5.05;1.55;;;;;;;;;;5046689;28;20041;-75
2023/05/13 08:08:17;;;;;;;5.50;1.95;;;;;;;;;;5046020;28;20053;-75
2023/05/13 08:10:47;;;;;;;3.17;1.73;;;;;;;;;;5046410;28;20055;-75
2023/05/13 08:13:17;;;;;;;5.05;1.00;;;;;;;;;;5045536;28;20044;-75
2023/05/13 08:15:48;;;;;;;2.90;1.65;;;;;;;;;;5046067;28;20041;-75
2023/05/13 08:18:19;;;;;;;4.90;1.35;;;;;;;;;;5046026;28;20063;-75
2023/05/13 08:20:55;;;;;;;8.18;1.50;;;;;;;;;;5045788;28;20063;-75
2023/05/13 08:23:25;;;;;;;4.45;1.30;;;;;;;;;;5045551;28;20498;-75
2023/05/13 08:26:13;;;;;;;2.67;1.13;;;;;;;;;;5045882;28;20064;-75
2023/05/13 08:28:44;;;;;;;2.75;1.38;;;;;;;;;;5046283;28;20045;-75
2023/05/13 08:31:14;;;;;;;2.58;0.90;;;;;;;;;;5045515;28;20511;-75
2023/05/13 08:33:46;;;;;;;1.75;1.00;;;;;;;;;;5045709;28;20056;-74
2023/05/13 08:36:17;;;;;;;1.05;0.63;;;;;;;;;;5045414;28;20045;-75
2023/05/13 08:38:49;;;;;;;0.95;0.90;;;;;;;;;;5046006;28;20049;-75
2023/05/13 08:41:21;;;;;;;2.60;1.30;;;;;;;;;;5046180;28;20049;-75
2023/05/13 08:43:53;;;;;;;3.60;1.15;;;;;;;;;;5045774;28;20045;-75
2023/05/13 08:46:26;;;;;;;2.25;0.88;;;;;;;;;;5044297;28;20048;-75
2023/05/13 08:48:58;;;;;;;1.75;1.00;;;;;;;;;;5045335;28;20499;-75
2023/05/13 08:51:28;;;;;;;1.35;1.00;;;;;;;;;;5044369;28;20526;-75
2023/05/13 08:54:00;;;;;;;1.13;0.80;;;;;;;;;;5045837;28;20048;-75
2023/05/13 08:56:30;;;;;;;0.98;0.60;;;;;;;;;;5045611;28;20048;-75
2023/05/13 08:59:00;;;;;;;1.90;1.00;;;;;;;;;;5045466;28;20059;-75
2023/05/13 09:01:31;;;;;;;2.10;1.00;;;;;;;;;;5044250;28;20403;-75
2023/05/13 09:04:07;;;;;;;0.85;0.85;;;;;;;;;;5045148;28;20048;-75
2023/05/13 09:06:38;;;;;;;1.92;1.00;;;;;;;;;;5045292;28;20060;-75
2023/05/13 09:09:09;;;;;;;2.47;0.85;;;;;;;;;;5045301;28;20041;-75
2023/05/13 09:11:40;;;;;;;1.77;0.88;;;;;;;;;;5045186;28;20045;-75
2023/05/13 09:14:13;;;;;;;1.73;0.98;;;;;;;;;;5045458;28;20044;-75
2023/05/13 09:16:42;;;;;;;1.58;1.00;;;;;;;;;;5045481;28;20049;-75
2023/05/13 09:19:14;;;;;;;3.20;1.10;;;;;;;;;;5044974;28;20056;-75
2023/05/13 09:21:47;;;;;;;1.25;1.00;;;;;;;;;;5045108;28;20408;-75
2023/05/13 09:24:17;;;;;;;1.02;0.68;;;;;;;;;;5044575;28;20052;-75
2023/05/13 09:26:49;;;;;;;2.72;0.95;;;;;;;;;;5044865;28;20053;-75
2023/05/13 09:29:32;;;;;;;3.85;0.80;;;;;;;;;;5045308;28;20053;-75
2023/05/13 09:32:09;;;;;;;2.83;0.90;;;;;;;;;;5045246;28;20081;-75
2023/05/13 09:34:40;;;;;;;1.13;0.80;;;;;;;;;;5045761;28;20053;-75
2023/05/13 09:37:16;;;;;;;1.10;0.80;;;;;;;;;;5044778;28;20045;-76
2023/05/13 09:39:52;;;;;;;2.97;1.15;;;;;;;;;;5044780;28;20053;-75
2023/05/13 09:42:23;;;;;;;1.15;0.90;;;;;;;;;;5044948;28;20419;-75
2023/05/13 09:44:53;;;;;;;1.48;0.93;;;;;;;;;;5044753;28;20051;-75
2023/05/13 09:47:24;;;;;;;1.15;0.90;;;;;;;;;;5045111;28;20139;-75
2023/05/13 09:49:56;;;;;;;0.90;0.75;;;;;;;;;;5044960;28;20087;-75
2023/05/13 09:52:28;;;;;;;3.55;1.10;;;;;;;;;;5045068;28;20044;-75
2023/05/13 09:55:00;;;;;;;2.03;1.23;;;;;;;;;;5044330;28;20052;-75
2023/05/13 09:57:31;;;;;;;1.92;0.80;;;;;;;;;;5044692;28;20053;-75
2023/05/13 10:00:08;;;;;;;1.02;0.70;;;;;;;;;;5043261;28;20065;-76
2023/05/13 10:02:52;;;;;;;1.98;1.30;;;;;;;;;;5062104;28;20555;-75
2023/05/13 10:05:24;;;;;;;3.97;1.70;;;;;;;;;;5064752;28;20049;-75
2023/05/13 10:07:54;;;;;;;0.88;0.70;;;;;;;;;;5080667;28;20426;-76
2023/05/13 10:10:27;;;;;;;0.80;0.70;;;;;;;;;;5064649;28;20407;-75
2023/05/13 10:13:05;;;;;;;0.50;0.50;;;;;;;;;;5064677;28;20033;-75
2023/05/13 10:15:36;;;;;;;3.25;0.80;;;;;;;;;;5064186;28;20049;-76
2023/05/13 10:18:09;;;;;;;1.25;0.85;;;;;;;;;;5064370;28;20045;-75
2023/05/13 10:20:41;;;;;;;3.90;1.02;;;;;;;;;;5064428;28;20053;-76
2023/05/13 10:23:11;;;;;;;4.05;1.20;;;;;;;;;;5064381;28;20044;-75
2023/05/13 10:25:42;;;;;;;3.25;0.90;;;;;;;;;;5064344;28;20045;-76
2023/05/13 10:28:15;;;;;;;1.90;1.05;;;;;;;;;;5062354;28;20059;-75
2023/05/13 10:30:50;;;;;;;7.40;1.27;;;;;;;;;;5064561;28;20040;-74
2023/05/13 10:33:20;;;;;;;6.05;1.45;;;;;;;;;;5064240;28;20419;-74
2023/05/13 10:36:12;;;;;;;5.05;1.65;;;;;;;;;;5065595;28;20048;-74
2023/05/13 10:39:07;;;;;;;2.40;1.02;;;;;;;;;;5065943;28;20052;-74
2023/05/13 10:42:09;;;;;;;2.67;1.45;;;;;;;;;;5066994;28;20033;-74
2023/05/13 10:44:39;;;;;;;2.60;1.13;;;;;;;;;;5066717;28;20111;-74
2023/05/13 10:47:11;;;;;;;4.53;1.65;;;;;;;;;;5066535;28;20052;-74
2023/05/13 10:49:52;;;;;;;10.63;1.90;;;;;;;;;;5067835;28;20056;-74
2023/05/13 10:52:23;;;;;;;3.85;1.58;;;;;;;;;;5067180;28;20055;-74
2023/05/13 10:55:02;;;;;;;13.60;2.45;;;;;;;;;;5067764;28;20518;-74
2023/05/13 10:57:37;;;;;;;4.80;2.00;;;;;;;;;;5066107;28;20498;-74
2023/05/13 11:00:18;;;;;;;2.90;1.58;;;;;;;;;;5067818;28;20047;-74
2023/05/13 11:02:53;;;;;;;5.18;1.77;;;;;;;;;;5067663;28;20072;-74
2023/05/13 11:05:23;;;;;;;3.10;2.05;;;;;;;;;;5067681;28;20060;-74
2023/05/13 11:07:57;;;;;;;4.93;1.50;;;;;;;;;;5067340;28;20552;-74
2023/05/13 11:10:31;;;;;;;4.55;2.10;;;;;;;;;;5066263;28;20049;-74
2023/05/13 11:13:15;;;;;;;7.00;1.88;;;;;;;;;;5067257;28;20052;-74
2023/05/13 11:15:49;;;;;;;3.63;1.38;;;;;;;;;;5066870;28;20506;-73
2023/05/13 11:18:30;;;;;;;4.10;1.77;;;;;;;;;;5067029;28;20044;-73
2023/05/13 11:21:05;;;;;;;4.57;1.50;;;;;;;;;;5067100;28;20052;-73
2023/05/13 11:23:53;;;;;;;;;;;;;;;;;;5067897;28;20053;-74
2023/05/13 11:26:23;;;;;;;1.88;1.45;;;;;;;;;;5066619;28;20390;-75
2023/05/13 11:28:54;;;;;;;3.72;1.50;;;;;;;;;;5067393;28;20049;-75
2023/05/13 11:31:26;;;;;;;2.28;1.30;;;;;;;;;;5067383;28;20052;-74
2023/05/13 11:34:15;;;;;;;4.85;1.48;;;;;;;;;;5067097;28;20059;-79
2023/05/13 11:36:48;;;;;;;3.00;1.40;;;;;;;;;;5066613;28;20044;-74
2023/05/13 11:39:20;;;;;;;3.90;1.95;;;;;;;;;;5066810;28;20055;-74
2023/05/13 11:41:51;;;;;;;1.95;0.90;;;;;;;;;;5066689;28;20506;-75
2023/05/13 11:44:23;;;;;;;2.20;1.27;;;;;;;;;;5067228;28;20063;-75
2023/05/13 11:46:58;;;;;;;2.88;1.42;;;;;;;;;;5066427;28;20044;-76
2023/05/13 11:49:44;;;;;;;1.92;1.02;;;;;;;;;;5066407;28;20044;-75
2023/05/13 11:52:18;;;;;;;4.68;1.08;;;;;;;;;;5066297;28;20052;-76
2023/05/13 11:54:53;;;;;;;5.25;1.10;;;;;;;;;;5066569;28;20051;-75
2023/05/13 11:57:33;;;;;;;13.02;1.38;;;;;;;;;;5066656;28;20059;-75
2023/05/13 12:00:09;;;;;;;4.05;1.10;;;;;;;;;;5066640;28;20037;-75
2023/05/13 12:02:40;;;;;;;8.98;1.30;;;;;;;;;;5066432;28;20068;-75
2023/05/13 12:05:11;;;;;;;3.45;1.10;;;;;;;;;;5066594;28;20057;-75
2023/05/13 12:07:42;;;;;;;4.75;1.10;;;;;;;;;;5066458;28;20434;-74
2023/05/13 12:10:12;;;;;;;1.95;0.90;;;;;;;;;;5065969;28;20051;-76
2023/05/13 12:12:45;;;;;;;3.20;1.10;;;;;;;;;;5066108;28;20055;-72
2023/05/13 12:15:18;;;;;;;2.67;1.08;;;;;;;;;;5066108;28;20044;-76
2023/05/13 12:17:49;;;;;;;3.13;1.13;;;;;;;;;;5065875;28;20049;-75
2023/05/13 12:20:21;;;;;;;5.47;1.10;;;;;;;;;;5065989;28;20044;-75
2023/05/13 12:22:55;;;;;;;2.08;0.88;;;;;;;;;;5066669;28;20047;-74
2023/05/13 12:25:53;;;;;;;1.15;0.77;;;;;;;;;;5065956;28;20048;-76
2023/05/13 12:28:26;;;;;;;2.10;1.17;;;;;;;;;;5061346;28;20064;-76
2023/05/13 12:31:03;;;;;;;3.25;1.05;;;;;;;;;;5065896;28;20055;-75
2023/05/13 12:33:42;;;;;;;3.58;1.00;;;;;;;;;;5047223;28;20044;-72
2023/05/13 12:36:34;;;;;;;2.53;1.02;;;;;;;;;;5065660;28;20053;-72
2023/05/13 12:39:09;;;;;;;2.65;0.73;;;;;;;;;;5065683;28;20553;-76
2023/05/13 12:41:41;;;;;;;2.63;0.82;;;;;;;;;;5065083;28;20382;-76
2023/05/13 12:44:15;;;;;;;3.08;1.02;;;;;;;;;;5065751;28;20048;-78
2023/05/13 12:46:54;;;;;;;4.35;1.35;;;;;;;;;;5065506;28;20775;-76
2023/05/13 12:49:25;;;;;;;6.30;1.10;;;;;;;;;;5065467;28;20036;-74
2023/05/13 12:51:56;;;;;;;4.90;1.27;;;;;;;;;;5065752;28;20051;-73
2023/05/13 12:54:27;;;;;;;4.20;1.38;;;;;;;;;;5065470;28;20063;-72
2023/05/13 12:56:57;;;;;;;4.57;1.40;;;;;;;;;;5064805;28;20048;-78
2023/05/13 12:59:28;;;;;;;3.53;1.23;;;;;;;;;;5064540;28;20056;-76
2023/05/13 13:01:59;;;;;;;7.82;1.50;;;;;;;;;;5065077;28;20052;-75
2023/05/13 13:04:30;;;;;;;2.85;1.30;;;;;;;;;;5065324;28;20059;-75
2023/05/13 13:07:01;;;;;;;7.05;3.05;;;;;;;;;;5064937;28;20842;-74
2023/05/13 13:09:31;;;;;;;4.32;1.33;;;;;;;;;;5063359;28;20052;-72
2023/05/13 13:12:01;;;;;;;3.00;1.48;;;;;;;;;;5062906;28;20088;-73
2023/05/13 13:14:30;;;;;;;5.30;1.35;;;;;;;;;;5062668;28;20060;-74
2023/05/13 13:17:01;;;;;;;6.35;1.33;;;;;;;;;;5063865;28;20429;-73
2023/05/13 13:19:31;;;;;;;6.07;1.48;;;;;;;;;;5064720;28;20059;-74
2023/05/13 13:22:02;;;;;;;7.53;1.42;;;;;;;;;;5064506;28;20052;-73
2023/05/13 13:24:33;;;;;;;3.90;1.10;;;;;;;;;;5064738;28;20059;-76
2023/05/13 13:27:04;;;;;;;3.10;1.23;;;;;;;;;;5064869;28;20067;-74
2023/05/13 13:29:38;;;;;;;3.22;1.05;;;;;;;;;;5065202;28;20135;-75
2023/05/13 13:32:11;;;;;;;4.97;1.25;;;;;;;;;;5064703;28;20052;-74
2023/05/13 13:34:44;;;;;;;9.35;1.55;;;;;;;;;;5064764;28;20056;-72
2023/05/13 13:37:14;;;;;;;2.22;1.00;;;;;;;;;;5064743;28;20044;-73
2023/05/13 13:39:45;;;;;;;3.78;1.20;;;;;;;;;;5064671;28;20039;-75
2023/05/13 13:42:16;;;;;;;2.75;1.05;;;;;;;;;;5065016;28;20059;-74
2023/05/13 13:44:46;;;;;;;4.60;1.10;;;;;;;;;;5063716;28;20506;-74
2023/05/13 13:47:16;;;;;;;3.42;1.42;;;;;;;;;;5064652;28;20052;-74
2023/05/13 13:49:47;;;;;;;3.50;1.35;;;;;;;;;;5064513;28;20049;-74
2023/05/13 13:52:17;;;;;;;5.80;1.60;;;;;;;;;;5064535;28;20067;-74
2023/05/13 13:54:49;;;;;;;5.45;0.93;;;;;;;;;;5064867;28;20045;-77
2023/05/13 13:57:19;;;;;;;5.63;0.90;;;;;;;;;;5064919;28;20044;-74
2023/05/13 13:59:49;;;;;;;4.72;0.95;;;;;;;;;;5064850;28;20045;-74
2023/05/13 14:02:19;;;;;;;2.03;0.73;;;;;;;;;;5064279;28;20388;-74
2023/05/13 14:04:50;;;;;;;2.97;0.95;;;;;;;;;;5062711;28;20055;-74
2023/05/13 14:07:22;;;;;;;2.20;0.90;;;;;;;;;;5066128;28;20049;-79
2023/05/13 14:09:52;;;;;;;2.63;0.80;;;;;;;;;;5066749;28;20056;-79
2023/05/13 14:12:21;;;;;;;5.53;2.17;;;;;;;;;;5069388;28;20403;-79
2023/05/13 14:14:52;;;;;;;4.22;1.08;;;;;;;;;;5068587;28;20048;-79
2023/05/13 14:17:22;;;;;;;2.25;0.85;;;;;;;;;;5066650;28;20462;-77
2023/05/13 14:19:54;;;;;;;3.55;1.08;;;;;;;;;;5068452;28;20049;-79
2023/05/13 14:22:24;;;;;;;5.15;1.42;;;;;;;;;;5068587;28;20049;-80
2023/05/13 14:24:55;;;;;;;4.60;1.00;;;;;;;;;;5069153;28;20048;-79
2023/05/13 14:27:32;;;;;;;3.17;1.20;;;;;;;;;;5069430;28;20430;-79
2023/05/13 14:30:05;;;;;;;5.72;1.50;;;;;;;;;;5067999;28;20051;-79
2023/05/13 14:32:36;;;;;;;1.92;0.90;;;;;;;;;;5068265;28;20040;-80
2023/05/13 14:35:06;;;;;;;13.68;11.85;;;;;;;;;;5067929;28;20044;-79
2023/05/13 14:37:38;;;;;;;2.67;1.20;;;;;;;;;;5067779;28;20522;-81
2023/05/13 14:40:10;;;;;;;10.85;1.58;;;;;;;;;;5066792;28;20059;-78
2023/05/13 14:42:40;;;;;;;16.23;1.30;;;;;;;;;;5068606;28;20055;-81
2023/05/13 14:45:10;;;;;;;4.20;1.00;;;;;;;;;;5069112;28;20693;-81
2023/05/13 14:47:45;;;;;;;4.10;1.00;;;;;;;;;;5067185;28;20052;-82
2023/05/13 14:50:17;;;;;;;3.88;1.33;;;;;;;;;;5068528;28;20499;-83
2023/05/13 14:52:49;;;;;;;5.57;1.13;;;;;;;;;;5068146;28;20057;-82
2023/05/13 14:55:21;;;;;;;3.28;1.20;;;;;;;;;;5066706;28;20606;-85
2023/05/13 14:57:56;;;;;;;3.42;1.15;;;;;;;;;;5068627;28;20122;-84
2023/05/13 15:00:26;;;;;;;5.78;1.42;;;;;;;;;;5069195;28;20051;-84
2023/05/13 15:02:57;;;;;;;5.00;1.73;;;;;;;;;;5067686;28;20442;-84
2023/05/13 15:05:28;;;;;;;2.30;1.35;;;;;;;;;;5066533;28;20048;-81
2023/05/13 15:07:58;;;;;;;3.92;1.60;;;;;;;;;;5067906;28;20048;-83
2023/05/13 15:10:30;;;;;;;4.72;1.50;;;;;;;;;;5067906;28;20055;-83
2023/05/13 15:13:02;;;;;;;3.45;1.20;;;;;;;;;;5066280;28;20048;-82
2023/05/13 15:15:32;;;;;;;6.57;1.52;;;;;;;;;;5050066;28;20044;-83
2023/05/13 15:18:02;;;;;;;8.27;1.73;;;;;;;;;;5067421;28;20051;-83